Rothes, United Kingdom
Current Conditions -  °F | °C
As of 5:50 AM on Sunday 26 Oct 2014 (Local Time) from EGQS Reporting Station
Broken Clouds Broken Clouds  
Wind Chill: 54°   Ceiling: 25000
Heat Index: 54°   Visibility: 6mi
Dew Point: 43°   Wind: 33mph
Humidity: 67%   Direction: 250°WSW
Pressure: 29.41"   Gusts: 47mph
Location:  57.53°N, 3.21°W
Report Text: EGQS 260450Z 25029G41KT 9999 SCT045 BKN250 12/06 Q0996 BLU
Loading
Personal Weather Stations






























Interactive Weather Map
Tropical Storm Tracking
New forecast layout! Learn more

10-Day Weather Forecast

Advertisements
Track Severe Weather on mobile